AUA154 FMMI-FIMP
Flight info
| Callsign | AUA154 |
|---|---|
| Flight time | 1h 24m |
| Altitude | 39000 |
| Route | PIPRI1E TE UA400 RASMA RASMA2E |
| Aircraft | B772/H-SDE2E3FGHIJ5LORVWXY/LB1D1 |
Departure
| Time | 2026-04-25 19:44 |
|---|---|
| Airport | Ivato International Airport (FMMI) |
Arrival
| Time | 2026-04-25 21:08 |
|---|---|
| Airport | Sir Seewoosagur Ramgoolam International Airport (FIMP) |
| Time | Latitude | Longitude | Altitude | Speed | Heading |
|---|---|---|---|---|---|
| 2026-04-25 19:25 | -18.79999 | 47.47999 | 4170 ft | 0 kts | 188° |
| 2026-04-25 19:35 | -18.79979 | 47.48002 | 4171 ft | 4 kts | 185° |
| 2026-04-25 19:35 | -18.79952 | 47.48003 | 4171 ft | 4 kts | 178° |
| 2026-04-25 19:35 | -18.79925 | 47.48000 | 4170 ft | 4 kts | 166° |
| 2026-04-25 19:36 | -18.79901 | 47.47990 | 4170 ft | 4 kts | 135° |
| 2026-04-25 19:36 | -18.79892 | 47.47977 | 4170 ft | 0 kts | 99° |
| 2026-04-25 19:39 | -18.79896 | 47.48004 | 4170 ft | 11 kts | 99° |
| 2026-04-25 19:39 | -18.79885 | 47.48098 | 4170 ft | 14 kts | 43° |
| 2026-04-25 19:40 | -18.79788 | 47.48118 | 4168 ft | 14 kts | 8° |
| 2026-04-25 19:40 | -18.79721 | 47.48069 | 4168 ft | 14 kts | 279° |
| 2026-04-25 19:40 | -18.79697 | 47.47915 | 4168 ft | 29 kts | 278° |
| 2026-04-25 19:40 | -18.79658 | 47.47661 | 4168 ft | 38 kts | 279° |
| 2026-04-25 19:41 | -18.79619 | 47.47396 | 4166 ft | 36 kts | 279° |
| 2026-04-25 19:41 | -18.79581 | 47.47144 | 4165 ft | 34 kts | 278° |
| 2026-04-25 19:41 | -18.79545 | 47.46908 | 4165 ft | 31 kts | 279° |
| 2026-04-25 19:41 | -18.79534 | 47.46835 | 4166 ft | 29 kts | 279° |
| 2026-04-25 19:42 | -18.79491 | 47.46558 | 4165 ft | 15 kts | 284° |
| 2026-04-25 19:42 | -18.79449 | 47.46495 | 4166 ft | 9 kts | 307° |
| 2026-04-25 19:42 | -18.79459 | 47.46462 | 4166 ft | 2 kts | 186° |
| 2026-04-25 19:42 | -18.79474 | 47.46476 | 4166 ft | 4 kts | 130° |
| 2026-04-25 19:43 | -18.79483 | 47.46501 | 4165 ft | 4 kts | 102° |
| 2026-04-25 19:43 | -18.79488 | 47.46532 | 4165 ft | 7 kts | 100° |
| 2026-04-25 19:43 | -18.79521 | 47.46749 | 4166 ft | 64 kts | 99° |
| 2026-04-25 19:43 | -18.79636 | 47.47512 | 4168 ft | 143 kts | 100° |
| 2026-04-25 19:44 | -18.79809 | 47.48668 | 4660 ft | 160 kts | 100° |
| 2026-04-25 19:44 | -18.79988 | 47.49809 | 5669 ft | 157 kts | 101° |
| 2026-04-25 19:44 | -18.80152 | 47.50965 | 6379 ft | 170 kts | 101° |
| 2026-04-25 19:44 | -18.80348 | 47.52320 | 6674 ft | 202 kts | 101° |
| 2026-04-25 19:45 | -18.80595 | 47.53887 | 6900 ft | 231 kts | 102° |
| 2026-04-25 19:45 | -18.80900 | 47.55655 | 7123 ft | 259 kts | 104° |
| 2026-04-25 19:45 | -18.81305 | 47.57536 | 7695 ft | 270 kts | 105° |
| 2026-04-25 19:45 | -18.81741 | 47.59489 | 8458 ft | 276 kts | 105° |
| 2026-04-25 19:46 | -18.82185 | 47.61485 | 9197 ft | 283 kts | 105° |
| 2026-04-25 19:46 | -18.82638 | 47.63529 | 9925 ft | 289 kts | 105° |
| 2026-04-25 19:46 | -18.83098 | 47.65614 | 10538 ft | 297 kts | 104° |
| 2026-04-25 19:46 | -18.83578 | 47.67804 | 10911 ft | 313 kts | 104° |
| 2026-04-25 19:47 | -18.83908 | 47.69308 | 11303 ft | 320 kts | 104° |
| 2026-04-25 19:47 | -18.84411 | 47.71617 | 12080 ft | 326 kts | 104° |
| 2026-04-25 19:47 | -18.84923 | 47.73967 | 13077 ft | 329 kts | 104° |
| 2026-04-25 19:47 | -18.85438 | 47.76337 | 14082 ft | 333 kts | 104° |
| 2026-04-25 19:48 | -18.85959 | 47.78736 | 14948 ft | 338 kts | 104° |
| 2026-04-25 19:48 | -18.86486 | 47.81169 | 15816 ft | 343 kts | 104° |
| 2026-04-25 19:48 | -18.87022 | 47.83642 | 16702 ft | 348 kts | 104° |
| 2026-04-25 19:48 | -18.87568 | 47.86159 | 17538 ft | 353 kts | 104° |
| 2026-04-25 19:49 | -18.88119 | 47.88701 | 18401 ft | 358 kts | 104° |
| 2026-04-25 19:49 | -18.88489 | 47.90413 | 18890 ft | 362 kts | 104° |
| 2026-04-25 19:49 | -18.89235 | 47.93924 | 19804 ft | 371 kts | 104° |
| 2026-04-25 19:49 | -18.89796 | 47.96611 | 20479 ft | 377 kts | 104° |
| 2026-04-25 19:50 | -18.90930 | 48.02065 | 21847 ft | 388 kts | 104° |
| 2026-04-25 19:50 | -18.91514 | 48.04866 | 22514 ft | 394 kts | 105° |
| 2026-04-25 19:50 | -18.92106 | 48.07711 | 23172 ft | 400 kts | 105° |
| 2026-04-25 19:51 | -18.92706 | 48.10592 | 23805 ft | 405 kts | 105° |
| 2026-04-25 19:51 | -18.93315 | 48.13519 | 24352 ft | 411 kts | 105° |
| 2026-04-25 19:51 | -18.93932 | 48.16488 | 24931 ft | 415 kts | 104° |
| 2026-04-25 19:51 | -18.94552 | 48.19472 | 25511 ft | 419 kts | 104° |
| 2026-04-25 19:52 | -18.95181 | 48.22496 | 26074 ft | 424 kts | 104° |
| 2026-04-25 19:52 | -18.95786 | 48.25568 | 26655 ft | 429 kts | 103° |
| 2026-04-25 19:52 | -18.96360 | 48.28673 | 27238 ft | 433 kts | 102° |
| 2026-04-25 19:52 | -18.96927 | 48.31820 | 27824 ft | 438 kts | 102° |
| 2026-04-25 19:53 | -18.97495 | 48.34998 | 28428 ft | 442 kts | 102° |
| 2026-04-25 19:53 | -18.98071 | 48.38205 | 29037 ft | 447 kts | 102° |
| 2026-04-25 19:53 | -18.98657 | 48.41456 | 29618 ft | 452 kts | 102° |
| 2026-04-25 19:53 | -18.99252 | 48.44742 | 30200 ft | 457 kts | 102° |
| 2026-04-25 19:54 | -18.99856 | 48.48070 | 30680 ft | 462 kts | 102° |
| 2026-04-25 19:54 | -19.00457 | 48.51378 | 31171 ft | 467 kts | 102° |
| 2026-04-25 19:54 | -19.01071 | 48.54756 | 31672 ft | 470 kts | 102° |
| 2026-04-25 19:54 | -19.01488 | 48.57052 | 32000 ft | 473 kts | 102° |
| 2026-04-25 19:55 | -19.02315 | 48.61611 | 32578 ft | 479 kts | 102° |
| 2026-04-25 19:55 | -19.02943 | 48.65078 | 33059 ft | 483 kts | 102° |
| 2026-04-25 19:55 | -19.03578 | 48.68591 | 33497 ft | 487 kts | 102° |
| 2026-04-25 19:55 | -19.04216 | 48.72122 | 33943 ft | 490 kts | 102° |
| 2026-04-25 19:56 | -19.04859 | 48.75680 | 34313 ft | 494 kts | 102° |
| 2026-04-25 19:56 | -19.05505 | 48.79264 | 34660 ft | 499 kts | 102° |
| 2026-04-25 19:56 | -19.06154 | 48.82873 | 34994 ft | 502 kts | 102° |
| 2026-04-25 19:56 | -19.06809 | 48.86516 | 35331 ft | 506 kts | 102° |
| 2026-04-25 19:57 | -19.07461 | 48.90141 | 35652 ft | 509 kts | 101° |
| 2026-04-25 19:57 | -19.08132 | 48.93881 | 35953 ft | 513 kts | 101° |
| 2026-04-25 19:57 | -19.08797 | 48.97596 | 36283 ft | 515 kts | 101° |
| 2026-04-25 19:57 | -19.09463 | 49.01320 | 36690 ft | 516 kts | 101° |
| 2026-04-25 19:58 | -19.10120 | 49.04997 | 37113 ft | 515 kts | 101° |
| 2026-04-25 19:58 | -19.10785 | 49.08720 | 37511 ft | 516 kts | 101° |
| 2026-04-25 19:58 | -19.11452 | 49.12459 | 37878 ft | 517 kts | 101° |
| 2026-04-25 19:58 | -19.12116 | 49.16186 | 38260 ft | 517 kts | 100° |
| 2026-04-25 19:59 | -19.12783 | 49.19933 | 38646 ft | 517 kts | 100° |
| 2026-04-25 19:59 | -19.13445 | 49.23662 | 38984 ft | 516 kts | 100° |
| 2026-04-25 19:59 | -19.14108 | 49.27395 | 39361 ft | 514 kts | 100° |
| 2026-04-25 19:59 | -19.14766 | 49.31107 | 39764 ft | 512 kts | 100° |
| 2026-04-25 20:00 | -19.15421 | 49.34805 | 40122 ft | 511 kts | 100° |
| 2026-04-25 20:00 | -19.15854 | 49.37252 | 40334 ft | 511 kts | 100° |
| 2026-04-25 20:00 | -19.16726 | 49.42189 | 40775 ft | 509 kts | 100° |
| 2026-04-25 20:00 | -19.17375 | 49.45866 | 40974 ft | 511 kts | 100° |
| 2026-04-25 20:01 | -19.18676 | 49.53257 | 41019 ft | 515 kts | 100° |
| 2026-04-25 20:01 | -19.19970 | 49.60621 | 41011 ft | 506 kts | 100° |
| 2026-04-25 20:02 | -19.21252 | 49.67939 | 41019 ft | 506 kts | 100° |
| 2026-04-25 20:02 | -19.22535 | 49.75278 | 41023 ft | 507 kts | 100° |
| 2026-04-25 20:03 | -19.23812 | 49.82600 | 41018 ft | 508 kts | 100° |
| 2026-04-25 20:03 | -19.25096 | 49.89981 | 41013 ft | 509 kts | 100° |
| 2026-04-25 20:04 | -19.26374 | 49.97349 | 41014 ft | 509 kts | 100° |
| 2026-04-25 20:04 | -19.27638 | 50.04650 | 41011 ft | 509 kts | 100° |
| 2026-04-25 20:05 | -19.28921 | 50.12074 | 41009 ft | 509 kts | 100° |
| 2026-04-25 20:05 | -19.30166 | 50.19318 | 41011 ft | 509 kts | 100° |
| 2026-04-25 20:06 | -19.31434 | 50.26720 | 41018 ft | 509 kts | 100° |
| 2026-04-25 20:06 | -19.32704 | 50.34162 | 41007 ft | 509 kts | 100° |
| 2026-04-25 20:07 | -19.33956 | 50.41514 | 40999 ft | 509 kts | 100° |
| 2026-04-25 20:07 | -19.35214 | 50.48913 | 41016 ft | 508 kts | 100° |
| 2026-04-25 20:08 | -19.36436 | 50.56123 | 41008 ft | 509 kts | 100° |
| 2026-04-25 20:08 | -19.37673 | 50.63424 | 40999 ft | 508 kts | 100° |
| 2026-04-25 20:09 | -19.38930 | 50.70874 | 40962 ft | 509 kts | 100° |
| 2026-04-25 20:09 | -19.40180 | 50.78301 | 41007 ft | 508 kts | 100° |
| 2026-04-25 20:10 | -19.41420 | 50.85688 | 41001 ft | 508 kts | 100° |
| 2026-04-25 20:10 | -19.42633 | 50.92934 | 41002 ft | 508 kts | 100° |
| 2026-04-25 20:11 | -19.43866 | 51.00322 | 41000 ft | 508 kts | 100° |
| 2026-04-25 20:11 | -19.45109 | 51.07781 | 40991 ft | 508 kts | 100° |
| 2026-04-25 20:12 | -19.46347 | 51.15226 | 40995 ft | 508 kts | 100° |
| 2026-04-25 20:12 | -19.47161 | 51.20137 | 40990 ft | 508 kts | 100° |
| 2026-04-25 20:13 | -19.48765 | 51.29837 | 40993 ft | 508 kts | 100° |
| 2026-04-25 20:13 | -19.49992 | 51.37275 | 40989 ft | 507 kts | 100° |
| 2026-04-25 20:14 | -19.51194 | 51.44589 | 40984 ft | 507 kts | 100° |
| 2026-04-25 20:14 | -19.52410 | 51.52005 | 40984 ft | 507 kts | 100° |
| 2026-04-25 20:15 | -19.53626 | 51.59445 | 40988 ft | 506 kts | 100° |
| 2026-04-25 20:15 | -19.54815 | 51.66726 | 40985 ft | 506 kts | 100° |
| 2026-04-25 20:16 | -19.56002 | 51.74017 | 40990 ft | 506 kts | 100° |
| 2026-04-25 20:16 | -19.57196 | 51.81378 | 40989 ft | 506 kts | 100° |
| 2026-04-25 20:17 | -19.58362 | 51.88582 | 40987 ft | 505 kts | 99° |
| 2026-04-25 20:17 | -19.59571 | 51.96068 | 40981 ft | 505 kts | 99° |
| 2026-04-25 20:18 | -19.60742 | 52.03335 | 40983 ft | 505 kts | 99° |
| 2026-04-25 20:18 | -19.61915 | 52.10645 | 40981 ft | 505 kts | 99° |
| 2026-04-25 20:19 | -19.63085 | 52.17954 | 40983 ft | 505 kts | 99° |
| 2026-04-25 20:19 | -19.64257 | 52.25287 | 40979 ft | 505 kts | 99° |
| 2026-04-25 20:20 | -19.65436 | 52.32688 | 40996 ft | 504 kts | 99° |
| 2026-04-25 20:20 | -19.66599 | 52.40007 | 40981 ft | 505 kts | 99° |
| 2026-04-25 20:21 | -19.67778 | 52.47456 | 40972 ft | 505 kts | 99° |
| 2026-04-25 20:21 | -19.68722 | 52.53423 | 40987 ft | 504 kts | 99° |
| 2026-04-25 20:22 | -19.69693 | 52.59571 | 40988 ft | 504 kts | 99° |
| 2026-04-25 20:22 | -19.71052 | 52.68223 | 40980 ft | 505 kts | 99° |
| 2026-04-25 20:23 | -19.72202 | 52.75560 | 40978 ft | 505 kts | 99° |
| 2026-04-25 20:23 | -19.73334 | 52.82796 | 40963 ft | 505 kts | 99° |
| 2026-04-25 20:24 | -19.74503 | 52.90293 | 40977 ft | 505 kts | 99° |
| 2026-04-25 20:24 | -19.75644 | 52.97627 | 40975 ft | 505 kts | 99° |
| 2026-04-25 20:25 | -19.76783 | 53.04975 | 40983 ft | 505 kts | 99° |
| 2026-04-25 20:25 | -19.77930 | 53.12392 | 40967 ft | 505 kts | 99° |
| 2026-04-25 20:26 | -19.79044 | 53.19603 | 40974 ft | 505 kts | 99° |
| 2026-04-25 20:26 | -19.80190 | 53.27033 | 40980 ft | 504 kts | 99° |
| 2026-04-25 20:27 | -19.81310 | 53.34309 | 40959 ft | 504 kts | 99° |
| 2026-04-25 20:27 | -19.82444 | 53.41709 | 40977 ft | 504 kts | 99° |
| 2026-04-25 20:28 | -19.83569 | 53.49062 | 40981 ft | 504 kts | 99° |
| 2026-04-25 20:28 | -19.84681 | 53.56357 | 40974 ft | 504 kts | 99° |
| 2026-04-25 20:29 | -19.85753 | 53.63407 | 40955 ft | 504 kts | 99° |
| 2026-04-25 20:29 | -19.86770 | 53.70122 | 40976 ft | 504 kts | 99° |
| 2026-04-25 20:30 | -19.87851 | 53.77270 | 40949 ft | 504 kts | 99° |
| 2026-04-25 20:30 | -19.88982 | 53.84758 | 40961 ft | 504 kts | 99° |
| 2026-04-25 20:31 | -19.90084 | 53.92088 | 40973 ft | 503 kts | 99° |
| 2026-04-25 20:31 | -19.91195 | 53.99503 | 40970 ft | 503 kts | 99° |
| 2026-04-25 20:32 | -19.92295 | 54.06862 | 40961 ft | 503 kts | 99° |
| 2026-04-25 20:32 | -19.93388 | 54.14193 | 40973 ft | 503 kts | 99° |
| 2026-04-25 20:33 | -19.94483 | 54.21558 | 40972 ft | 503 kts | 99° |
| 2026-04-25 20:33 | -19.95384 | 54.27642 | 40953 ft | 503 kts | 99° |
| 2026-04-25 20:34 | -19.96647 | 54.36227 | 40961 ft | 503 kts | 99° |
| 2026-04-25 20:34 | -19.97718 | 54.43536 | 40958 ft | 503 kts | 98° |
| 2026-04-25 20:35 | -19.98799 | 54.50925 | 40969 ft | 503 kts | 98° |
| 2026-04-25 20:35 | -19.99862 | 54.58213 | 40960 ft | 502 kts | 98° |
| 2026-04-25 20:36 | -20.00931 | 54.65559 | 40956 ft | 502 kts | 98° |
| 2026-04-25 20:36 | -20.01997 | 54.72892 | 40956 ft | 502 kts | 98° |
| 2026-04-25 20:37 | -20.03062 | 54.80236 | 40953 ft | 502 kts | 98° |
| 2026-04-25 20:37 | -20.04122 | 54.87574 | 40953 ft | 502 kts | 98° |
| 2026-04-25 20:38 | -20.04651 | 54.91239 | 40699 ft | 504 kts | 98° |
| 2026-04-25 20:38 | -20.05118 | 54.94485 | 40125 ft | 506 kts | 98° |
| 2026-04-25 20:38 | -20.05650 | 54.98183 | 39507 ft | 505 kts | 99° |
| 2026-04-25 20:38 | -20.06179 | 55.01875 | 39026 ft | 502 kts | 99° |
| 2026-04-25 20:39 | -20.06703 | 55.05530 | 38572 ft | 498 kts | 99° |
| 2026-04-25 20:39 | -20.07222 | 55.09155 | 38054 ft | 494 kts | 99° |
| 2026-04-25 20:39 | -20.07737 | 55.12757 | 37583 ft | 489 kts | 99° |
| 2026-04-25 20:39 | -20.08074 | 55.15111 | 37303 ft | 486 kts | 99° |
| 2026-04-25 20:40 | -20.08750 | 55.19844 | 36732 ft | 480 kts | 100° |
| 2026-04-25 20:40 | -20.09242 | 55.23291 | 36321 ft | 475 kts | 100° |
| 2026-04-25 20:40 | -20.09734 | 55.26746 | 35901 ft | 471 kts | 100° |
| 2026-04-25 20:40 | -20.10224 | 55.30181 | 35478 ft | 467 kts | 100° |
| 2026-04-25 20:41 | -20.10708 | 55.33589 | 35031 ft | 463 kts | 101° |
| 2026-04-25 20:41 | -20.11188 | 55.36969 | 34590 ft | 460 kts | 101° |
| 2026-04-25 20:41 | -20.11663 | 55.40322 | 34147 ft | 457 kts | 101° |
| 2026-04-25 20:41 | -20.12136 | 55.43659 | 33668 ft | 454 kts | 101° |
| 2026-04-25 20:42 | -20.12603 | 55.46963 | 33205 ft | 450 kts | 101° |
| 2026-04-25 20:42 | -20.13067 | 55.50249 | 32747 ft | 446 kts | 101° |
| 2026-04-25 20:42 | -20.13521 | 55.53500 | 32320 ft | 442 kts | 101° |
| 2026-04-25 20:42 | -20.13951 | 55.56718 | 31892 ft | 438 kts | 101° |
| 2026-04-25 20:43 | -20.14367 | 55.59914 | 31454 ft | 434 kts | 101° |
| 2026-04-25 20:43 | -20.14777 | 55.63084 | 31036 ft | 430 kts | 101° |
| 2026-04-25 20:43 | -20.15184 | 55.66225 | 30618 ft | 427 kts | 101° |
| 2026-04-25 20:43 | -20.15590 | 55.69346 | 30197 ft | 424 kts | 101° |
| 2026-04-25 20:44 | -20.15994 | 55.72442 | 29718 ft | 421 kts | 101° |
| 2026-04-25 20:44 | -20.16391 | 55.75483 | 29253 ft | 419 kts | 101° |
| 2026-04-25 20:44 | -20.16766 | 55.78358 | 28835 ft | 416 kts | 101° |
| 2026-04-25 20:44 | -20.17162 | 55.81393 | 28387 ft | 412 kts | 102° |
| 2026-04-25 20:45 | -20.17553 | 55.84403 | 27947 ft | 409 kts | 102° |
| 2026-04-25 20:45 | -20.17942 | 55.87400 | 27524 ft | 406 kts | 102° |
| 2026-04-25 20:45 | -20.18328 | 55.90372 | 27107 ft | 404 kts | 102° |
| 2026-04-25 20:45 | -20.18710 | 55.93319 | 26692 ft | 401 kts | 102° |
| 2026-04-25 20:46 | -20.19091 | 55.96257 | 26273 ft | 399 kts | 102° |
| 2026-04-25 20:46 | -20.19467 | 55.99167 | 25876 ft | 397 kts | 102° |
| 2026-04-25 20:46 | -20.19842 | 56.02078 | 25466 ft | 394 kts | 102° |
| 2026-04-25 20:46 | -20.20133 | 56.04933 | 25057 ft | 386 kts | 97° |
| 2026-04-25 20:47 | -20.20197 | 56.07793 | 24680 ft | 387 kts | 94° |
| 2026-04-25 20:47 | -20.20169 | 56.10633 | 24271 ft | 380 kts | 93° |
| 2026-04-25 20:47 | -20.20123 | 56.13412 | 23726 ft | 383 kts | 93° |
| 2026-04-25 20:47 | -20.20090 | 56.16318 | 22343 ft | 404 kts | 92° |
| 2026-04-25 20:48 | -20.20071 | 56.19389 | 20916 ft | 424 kts | 92° |
| 2026-04-25 20:48 | -20.20061 | 56.22563 | 19962 ft | 430 kts | 92° |
| 2026-04-25 20:48 | -20.20056 | 56.25735 | 19175 ft | 429 kts | 92° |
| 2026-04-25 20:48 | -20.20054 | 56.28903 | 18466 ft | 426 kts | 91° |
| 2026-04-25 20:49 | -20.20056 | 56.32041 | 17831 ft | 420 kts | 92° |
| 2026-04-25 20:49 | -20.20057 | 56.35128 | 17135 ft | 415 kts | 91° |
| 2026-04-25 20:49 | -20.20061 | 56.38184 | 16440 ft | 410 kts | 91° |
| 2026-04-25 20:49 | -20.20064 | 56.41196 | 15828 ft | 404 kts | 91° |
| 2026-04-25 20:50 | -20.20067 | 56.44177 | 15201 ft | 401 kts | 91° |
| 2026-04-25 20:50 | -20.20068 | 56.47107 | 14651 ft | 394 kts | 92° |
| 2026-04-25 20:50 | -20.20069 | 56.50014 | 14056 ft | 391 kts | 92° |
| 2026-04-25 20:50 | -20.20068 | 56.52886 | 13668 ft | 382 kts | 92° |
| 2026-04-25 20:51 | -20.20065 | 56.55681 | 13492 ft | 370 kts | 91° |
| 2026-04-25 20:51 | -20.20064 | 56.58363 | 13387 ft | 355 kts | 91° |
| 2026-04-25 20:51 | -20.20064 | 56.60946 | 13281 ft | 343 kts | 92° |
| 2026-04-25 20:51 | -20.20063 | 56.63444 | 13173 ft | 331 kts | 92° |
| 2026-04-25 20:52 | -20.20061 | 56.65852 | 13048 ft | 320 kts | 92° |
| 2026-04-25 20:52 | -20.20061 | 56.67404 | 12942 ft | 315 kts | 91° |
| 2026-04-25 20:52 | -20.20058 | 56.70454 | 12811 ft | 300 kts | 92° |
| 2026-04-25 20:52 | -20.20055 | 56.72638 | 12802 ft | 294 kts | 91° |
| 2026-04-25 20:53 | -20.20054 | 56.74837 | 12812 ft | 301 kts | 91° |
| 2026-04-25 20:53 | -20.20052 | 56.77084 | 12774 ft | 304 kts | 91° |
| 2026-04-25 20:53 | -20.20049 | 56.79337 | 12550 ft | 303 kts | 92° |
| 2026-04-25 20:53 | -20.20045 | 56.81566 | 12304 ft | 299 kts | 92° |
| 2026-04-25 20:54 | -20.20040 | 56.83778 | 11961 ft | 299 kts | 92° |
| 2026-04-25 20:54 | -20.20035 | 56.85976 | 11706 ft | 296 kts | 92° |
| 2026-04-25 20:54 | -20.20031 | 56.88160 | 11376 ft | 295 kts | 92° |
| 2026-04-25 20:54 | -20.20028 | 56.90347 | 11037 ft | 295 kts | 91° |
| 2026-04-25 20:55 | -20.20023 | 56.92493 | 10780 ft | 292 kts | 91° |
| 2026-04-25 20:55 | -20.20018 | 56.94647 | 10514 ft | 290 kts | 92° |
| 2026-04-25 20:55 | -20.20014 | 56.96793 | 10190 ft | 290 kts | 91° |
| 2026-04-25 20:55 | -20.20008 | 56.98945 | 9890 ft | 289 kts | 92° |
| 2026-04-25 20:56 | -20.20001 | 57.01074 | 9663 ft | 284 kts | 92° |
| 2026-04-25 20:56 | -20.19995 | 57.03152 | 9461 ft | 279 kts | 92° |
| 2026-04-25 20:56 | -20.19989 | 57.05209 | 9131 ft | 276 kts | 91° |
| 2026-04-25 20:56 | -20.19983 | 57.07226 | 8770 ft | 272 kts | 91° |
| 2026-04-25 20:57 | -20.19977 | 57.09231 | 8491 ft | 270 kts | 92° |
| 2026-04-25 20:57 | -20.19971 | 57.11226 | 8150 ft | 270 kts | 91° |
| 2026-04-25 20:57 | -20.19965 | 57.13237 | 7796 ft | 271 kts | 91° |
| 2026-04-25 20:57 | -20.19957 | 57.15231 | 7553 ft | 268 kts | 91° |
| 2026-04-25 20:58 | -20.19950 | 57.17199 | 7281 ft | 266 kts | 91° |
| 2026-04-25 20:58 | -20.19944 | 57.19170 | 6959 ft | 266 kts | 91° |
| 2026-04-25 20:58 | -20.19936 | 57.21132 | 6725 ft | 263 kts | 91° |
| 2026-04-25 20:58 | -20.19928 | 57.23031 | 6399 ft | 247 kts | 91° |
| 2026-04-25 20:59 | -20.19920 | 57.24828 | 6055 ft | 240 kts | 91° |
| 2026-04-25 20:59 | -20.19913 | 57.26601 | 5940 ft | 241 kts | 91° |
| 2026-04-25 20:59 | -20.20229 | 57.28369 | 5921 ft | 256 kts | 117° |
| 2026-04-25 20:59 | -20.21204 | 57.29998 | 5542 ft | 267 kts | 126° |
| 2026-04-25 21:00 | -20.22268 | 57.31623 | 5245 ft | 267 kts | 125° |
| 2026-04-25 21:00 | -20.22624 | 57.32172 | 5180 ft | 266 kts | 125° |
| 2026-04-25 21:00 | -20.24859 | 57.35646 | 4720 ft | 231 kts | 124° |
| 2026-04-25 21:01 | -20.25761 | 57.37059 | 4707 ft | 230 kts | 124° |
| 2026-04-25 21:01 | -20.26664 | 57.38476 | 4714 ft | 231 kts | 124° |
| 2026-04-25 21:01 | -20.27554 | 57.39877 | 4715 ft | 224 kts | 124° |
| 2026-04-25 21:01 | -20.28402 | 57.41218 | 4690 ft | 210 kts | 124° |
| 2026-04-25 21:02 | -20.29185 | 57.42455 | 4655 ft | 198 kts | 124° |
| 2026-04-25 21:02 | -20.29956 | 57.43672 | 4582 ft | 198 kts | 124° |
| 2026-04-25 21:02 | -20.30719 | 57.44875 | 4498 ft | 195 kts | 124° |
| 2026-04-25 21:02 | -20.31473 | 57.46061 | 4457 ft | 191 kts | 124° |
| 2026-04-25 21:03 | -20.32215 | 57.47235 | 4386 ft | 191 kts | 124° |
| 2026-04-25 21:03 | -20.32962 | 57.48423 | 4317 ft | 195 kts | 124° |
| 2026-04-25 21:03 | -20.33726 | 57.49637 | 4137 ft | 197 kts | 124° |
| 2026-04-25 21:03 | -20.34477 | 57.50832 | 3930 ft | 193 kts | 123° |
| 2026-04-25 21:04 | -20.35167 | 57.52057 | 3698 ft | 192 kts | 120° |
| 2026-04-25 21:04 | -20.35791 | 57.53308 | 3434 ft | 191 kts | 118° |
| 2026-04-25 21:04 | -20.36401 | 57.54568 | 3135 ft | 192 kts | 118° |
| 2026-04-25 21:04 | -20.37008 | 57.55834 | 2851 ft | 191 kts | 118° |
| 2026-04-25 21:05 | -20.37590 | 57.57053 | 2603 ft | 178 kts | 118° |
| 2026-04-25 21:05 | -20.38130 | 57.58177 | 2292 ft | 161 kts | 120° |
| 2026-04-25 21:05 | -20.38616 | 57.59188 | 2062 ft | 144 kts | 120° |
| 2026-04-25 21:05 | -20.39047 | 57.60078 | 1883 ft | 130 kts | 120° |
| 2026-04-25 21:06 | -20.39464 | 57.60952 | 1693 ft | 132 kts | 118° |
| 2026-04-25 21:06 | -20.39878 | 57.61819 | 1475 ft | 132 kts | 120° |
| 2026-04-25 21:06 | -20.40296 | 57.62689 | 1273 ft | 129 kts | 121° |
| 2026-04-25 21:06 | -20.40569 | 57.63252 | 1175 ft | 131 kts | 119° |
| 2026-04-25 21:07 | -20.41121 | 57.64408 | 925 ft | 132 kts | 119° |
| 2026-04-25 21:07 | -20.41533 | 57.65259 | 685 ft | 126 kts | 118° |
| 2026-04-25 21:07 | -20.41942 | 57.66110 | 485 ft | 133 kts | 118° |
| 2026-04-25 21:07 | -20.42355 | 57.66978 | 318 ft | 130 kts | 119° |
| 2026-04-25 21:08 | -20.42762 | 57.67817 | 208 ft | 116 kts | 118° |
| 2026-04-25 21:08 | -20.43087 | 57.68482 | 201 ft | 84 kts | 117° |
| 2026-04-25 21:08 | -20.43296 | 57.68919 | 166 ft | 49 kts | 117° |
| 2026-04-25 21:08 | -20.43432 | 57.69200 | 149 ft | 42 kts | 117° |
| 2026-04-25 21:09 | -20.43578 | 57.69361 | 140 ft | 11 kts | 214° |
| 2026-04-25 21:09 | -20.43645 | 57.69319 | 150 ft | 11 kts | 220° |
| 2026-04-25 21:09 | -20.43642 | 57.69240 | 158 ft | 11 kts | 294° |
| 2026-04-25 21:10 | -20.43609 | 57.69165 | 164 ft | 11 kts | 295° |
| 2026-04-25 21:10 | -20.43572 | 57.69087 | 170 ft | 15 kts | 296° |
| 2026-04-25 21:10 | -20.43506 | 57.68951 | 176 ft | 22 kts | 297° |
| 2026-04-25 21:10 | -20.43435 | 57.68804 | 178 ft | 22 kts | 297° |
| 2026-04-25 21:11 | -20.43365 | 57.68658 | 181 ft | 22 kts | 298° |
| 2026-04-25 21:11 | -20.43293 | 57.68512 | 183 ft | 22 kts | 297° |
| 2026-04-25 21:11 | -20.43226 | 57.68372 | 199 ft | 21 kts | 297° |
| 2026-04-25 21:11 | -20.43162 | 57.68236 | 206 ft | 20 kts | 297° |
| 2026-04-25 21:12 | -20.43125 | 57.68135 | 202 ft | 10 kts | 259° |
| 2026-04-25 21:12 | -20.43176 | 57.68090 | 203 ft | 10 kts | 205° |
| 2026-04-25 21:12 | -20.43241 | 57.68063 | 205 ft | 10 kts | 182° |
| 2026-04-25 21:12 | -20.43280 | 57.68076 | 201 ft | 7 kts | 175° |
| 2026-04-25 21:13 | -20.43308 | 57.68027 | 200 ft | 5 kts | 254° |
| 2026-04-25 21:13 | -20.43316 | 57.68003 | 202 ft | 3 kts | 249° |
| 2026-04-25 21:13 | -20.43321 | 57.67990 | 199 ft | 2 kts | 249° |
| 2026-04-25 21:13 | -20.43322 | 57.67986 | 198 ft | 0 kts | 249° |